Time;durP1;ratioP1;P1;durP2;ratioP2;P2;SDS_P1;SDS_P2;PMS_P1;PMS_P2;Temp;Humidity;BMP_temperature;BMP_pressure;BME280_temperature;BME280_humidity;BME280_pressure;Samples;Min_cycle;Max_cycle;Signal;HPM_P1;HPM_P2
2024/02/22 00:02:27;;;;;;;4.13;3.83;;;8.80;99.90;;;;;;4991884;28;20042;-70
2024/02/22 00:04:55;;;;;;;4.22;3.92;;;8.80;99.90;;;;;;4989636;28;20046;-70
2024/02/22 00:07:22;;;;;;;4.13;3.70;;;8.80;99.90;;;;;;4991497;28;20570;-71
2024/02/22 00:09:50;;;;;;;4.10;3.70;;;8.80;99.90;;;;;;4992795;28;20043;-70
2024/02/22 00:12:17;;;;;;;4.95;4.55;;;8.90;99.90;;;;;;4991527;28;20038;-70
2024/02/22 00:14:44;;;;;;;4.75;4.35;;;8.80;99.90;;;;;;4975655;28;20038;-70
2024/02/22 00:17:11;;;;;;;5.35;4.15;;;8.80;99.90;;;;;;4991773;28;20053;-70
2024/02/22 00:19:38;;;;;;;3.53;3.22;;;8.80;99.90;;;;;;4992689;28;20042;-70
2024/02/22 00:22:05;;;;;;;4.72;4.32;;;8.90;99.90;;;;;;4991743;28;20046;-70
2024/02/22 00:24:32;;;;;;;6.22;5.80;;;8.90;99.90;;;;;;4992540;28;20046;-70
2024/02/22 00:26:59;;;;;;;3.83;3.42;;;8.90;99.90;;;;;;4991617;28;20100;-70
2024/02/22 00:29:26;;;;;;;3.42;3.17;;;8.90;99.90;;;;;;5007392;28;20058;-70
2024/02/22 00:31:54;;;;;;;4.10;3.75;;;8.90;99.90;;;;;;4992945;28;20475;-70
2024/02/22 00:34:21;;;;;;;3.67;3.38;;;8.90;99.90;;;;;;4991180;28;20046;-70
2024/02/22 00:36:48;;;;;;;4.35;3.88;;;8.90;99.90;;;;;;4992749;28;20089;-70
2024/02/22 00:39:15;;;;;;;3.10;2.80;;;8.90;99.90;;;;;;4991196;28;20046;-70
2024/02/22 00:41:42;;;;;;;2.80;2.60;;;8.90;99.90;;;;;;4992906;28;20120;-70
2024/02/22 00:44:09;;;;;;;4.53;4.20;;;9.00;99.90;;;;;;4991791;28;20148;-70
2024/02/22 00:46:36;;;;;;;3.85;3.55;;;9.00;99.90;;;;;;4975535;28;20045;-70
2024/02/22 00:49:03;;;;;;;3.42;3.15;;;9.00;99.90;;;;;;4993347;28;20113;-70
2024/02/22 00:51:30;;;;;;;5.32;5.03;;;9.00;99.90;;;;;;4979204;28;20462;-70
2024/02/22 00:53:57;;;;;;;5.57;3.35;;;9.10;99.90;;;;;;4995557;28;20092;-70
2024/02/22 00:56:24;;;;;;;4.35;3.95;;;9.00;99.90;;;;;;5028047;28;20088;-70
2024/02/22 00:58:51;;;;;;;3.20;3.00;;;9.10;99.90;;;;;;4995601;28;20141;-70
2024/02/22 01:01:18;;;;;;;3.85;3.22;;;9.10;99.90;;;;;;4996501;28;20047;-70
2024/02/22 01:03:46;;;;;;;2.88;2.60;;;9.10;99.90;;;;;;4996680;28;20100;-70
2024/02/22 01:06:15;;;;;;;4.20;3.80;;;9.10;99.90;;;;;;5027826;28;20050;-70
2024/02/22 01:08:42;;;;;;;3.42;3.15;;;9.10;99.90;;;;;;5027926;28;20109;-70
2024/02/22 01:11:09;;;;;;;3.85;3.55;;;9.20;99.90;;;;;;5027840;28;20097;-70
2024/02/22 01:13:36;;;;;;;4.70;3.50;;;9.20;99.90;;;;;;4996295;28;20042;-71
2024/02/22 01:16:03;;;;;;;2.75;2.55;;;9.20;99.90;;;;;;5011282;28;20053;-70
2024/02/22 01:18:30;;;;;;;3.33;3.00;;;9.20;99.90;;;;;;4994941;28;20503;-70
2024/02/22 01:20:57;;;;;;;3.83;3.53;;;9.20;99.90;;;;;;4994990;28;20050;-71
2024/02/22 01:23:24;;;;;;;2.80;2.60;;;9.20;99.90;;;;;;5011064;28;20487;-70
2024/02/22 01:25:51;;;;;;;2.90;2.63;;;9.30;99.90;;;;;;5011103;28;20054;-70
2024/02/22 01:28:18;;;;;;;3.72;3.42;;;9.30;99.90;;;;;;4994720;28;20537;-70
2024/02/22 01:30:45;;;;;;;3.55;3.13;;;9.30;99.90;;;;;;4996074;28;20046;-70
2024/02/22 01:33:12;;;;;;;3.45;3.15;;;9.30;99.90;;;;;;5011095;28;20046;-70
2024/02/22 01:35:39;;;;;;;3.40;2.88;;;9.30;99.90;;;;;;4994648;28;20034;-71
2024/02/22 01:38:07;;;;;;;4.60;4.03;;;9.30;99.90;;;;;;5027569;28;20153;-70
2024/02/22 01:40:34;;;;;;;3.90;3.58;;;9.30;99.90;;;;;;4978500;28;20050;-71
2024/02/22 01:43:01;;;;;;;2.78;2.58;;;9.40;99.90;;;;;;5027222;28;20065;-70
2024/02/22 01:45:28;;;;;;;2.65;2.30;;;9.40;99.90;;;;;;5027086;28;20069;-70
2024/02/22 01:47:55;;;;;;;3.05;2.72;;;9.40;99.90;;;;;;4978461;28;20495;-70
2024/02/22 01:50:24;;;;;;;4.03;3.25;;;9.40;99.90;;;;;;5010841;28;20054;-71
2024/02/22 01:52:52;;;;;;;3.70;3.40;;;9.20;99.90;;;;;;5010581;28;20054;-71
2024/02/22 01:55:20;;;;;;;2.10;1.77;;;9.40;99.90;;;;;;5026966;28;20045;-70
2024/02/22 01:57:49;;;;;;;3.67;2.45;;;9.40;99.90;;;;;;4995364;28;20068;-70
2024/02/22 02:00:17;;;;;;;3.92;3.55;;;9.40;99.90;;;;;;4995108;28;20435;-71
2024/02/22 02:02:45;;;;;;;4.07;3.10;;;9.40;99.90;;;;;;5010243;28;20136;-70
2024/02/22 02:05:12;;;;;;;4.38;3.50;;;9.40;99.90;;;;;;4995459;28;20046;-71
2024/02/22 02:07:39;;;;;;;3.28;2.97;;;9.50;99.90;;;;;;4995247;28;20435;-71
2024/02/22 02:10:10;;;;;;;3.22;2.90;;;9.50;99.90;;;;;;5010360;28;20049;-70
2024/02/22 02:12:37;;;;;;;3.55;2.67;;;9.50;99.90;;;;;;5026767;28;20046;-70
2024/02/22 02:15:05;;;;;;;4.28;2.75;;;9.50;99.90;;;;;;4995390;28;20042;-70
2024/02/22 02:17:33;;;;;;;4.75;3.78;;;9.50;99.90;;;;;;4993918;28;20089;-71
2024/02/22 02:20:07;;;;;;;3.30;2.92;;;9.60;99.90;;;;;;4995732;28;20043;-70
2024/02/22 02:22:55;;;;;;;3.00;2.42;;;9.60;99.90;;;;;;4978264;28;20046;-71
2024/02/22 02:25:23;;;;;;;2.95;2.70;;;9.60;99.90;;;;;;4994009;28;20085;-70
2024/02/22 02:27:51;;;;;;;3.38;2.58;;;9.60;99.90;;;;;;4994818;28;20062;-71
2024/02/22 02:30:18;;;;;;;4.40;3.08;;;9.60;99.90;;;;;;4993956;28;20042;-70
2024/02/22 02:32:45;;;;;;;2.55;2.30;;;9.60;99.90;;;;;;4994760;28;20097;-71
2024/02/22 02:35:12;;;;;;;2.92;2.65;;;9.60;99.90;;;;;;4993650;28;20050;-71
2024/02/22 02:37:39;;;;;;;3.00;2.33;;;9.60;99.90;;;;;;4977411;28;20054;-70
2024/02/22 02:40:06;;;;;;;3.40;2.92;;;9.60;99.90;;;;;;5009917;28;20141;-70
2024/02/22 02:42:33;;;;;;;3.03;2.72;;;9.60;99.90;;;;;;4993358;28;20097;-71
2024/02/22 02:45:00;;;;;;;3.95;2.90;;;9.60;99.90;;;;;;4994776;28;20053;-70
2024/02/22 02:47:27;;;;;;;1.88;1.77;;;9.60;99.90;;;;;;4993467;28;20058;-70
2024/02/22 02:49:54;;;;;;;3.90;3.03;;;9.60;99.90;;;;;;5009389;28;20487;-70
2024/02/22 02:52:21;;;;;;;3.25;2.10;;;9.70;99.90;;;;;;5026104;28;20073;-70
2024/02/22 02:54:48;;;;;;;2.53;2.28;;;9.60;99.90;;;;;;4994448;28;20110;-71
2024/02/22 02:57:15;;;;;;;2.55;1.73;;;9.70;99.90;;;;;;4993443;28;20074;-71
2024/02/22 02:59:43;;;;;;;3.65;2.95;;;9.70;99.90;;;;;;4993229;28;20046;-71
2024/02/22 03:02:10;;;;;;;3.15;2.53;;;9.70;99.90;;;;;;4994478;28;20035;-70
2024/02/22 03:04:37;;;;;;;3.03;2.28;;;9.70;99.90;;;;;;4994295;28;20038;-70
2024/02/22 03:07:04;;;;;;;2.80;2.20;;;9.70;99.90;;;;;;5009472;28;20042;-70
2024/02/22 03:09:31;;;;;;;2.78;1.67;;;9.70;99.90;;;;;;4993156;28;20125;-70
2024/02/22 03:11:58;;;;;;;3.08;2.38;;;9.70;99.90;;;;;;4991932;28;20112;-70
2024/02/22 03:14:25;;;;;;;3.72;3.05;;;9.70;99.90;;;;;;5025739;28;20046;-71
2024/02/22 03:16:52;;;;;;;4.15;3.08;;;9.70;99.90;;;;;;5025428;28;20046;-70
2024/02/22 03:19:19;;;;;;;1.95;1.58;;;9.70;99.90;;;;;;4992928;28;20038;-70
2024/02/22 03:21:46;;;;;;;2.40;1.88;;;9.70;99.90;;;;;;4976451;28;20073;-71
2024/02/22 03:24:14;;;;;;;1.83;1.73;;;9.70;99.90;;;;;;4976803;28;20137;-71
2024/02/22 03:26:41;;;;;;;3.10;2.53;;;9.80;99.90;;;;;;4992621;28;20046;-71
2024/02/22 03:29:08;;;;;;;2.47;1.95;;;9.80;99.90;;;;;;4976361;28;20149;-71
2024/02/22 03:31:35;;;;;;;1.83;1.30;;;9.80;99.90;;;;;;4991513;28;20046;-70
2024/02/22 03:34:02;;;;;;;1.77;1.67;;;9.80;99.90;;;;;;4992222;28;20423;-71
2024/02/22 03:36:30;;;;;;;2.35;2.13;;;9.80;99.90;;;;;;5005997;28;20399;-70
2024/02/22 03:38:57;;;;;;;2.88;2.30;;;9.80;99.90;;;;;;4993367;28;20046;-70
2024/02/22 03:41:24;;;;;;;3.28;2.28;;;9.80;99.90;;;;;;4993740;28;20057;-71
2024/02/22 03:43:51;;;;;;;3.33;2.33;;;9.80;99.90;;;;;;4992236;28;20050;-70
2024/02/22 03:46:19;;;;;;;3.20;2.40;;;9.80;99.90;;;;;;4993697;28;20046;-70
2024/02/22 03:48:45;;;;;;;1.75;1.33;;;9.80;99.90;;;;;;4993523;28;20483;-71
2024/02/22 03:51:13;;;;;;;4.28;2.55;;;9.90;99.90;;;;;;4992234;28;20042;-70
2024/02/22 03:53:40;;;;;;;3.28;2.75;;;9.90;99.90;;;;;;4993318;28;20399;-71
2024/02/22 03:56:07;;;;;;;4.07;2.25;;;9.90;99.90;;;;;;4993493;28;20042;-71
2024/02/22 03:58:34;;;;;;;2.85;1.63;;;9.90;99.90;;;;;;4992283;28;20045;-70
2024/02/22 04:01:02;;;;;;;2.95;1.80;;;9.90;99.90;;;;;;4990966;28;20046;-70
2024/02/22 04:03:29;;;;;;;3.35;1.92;;;9.90;99.90;;;;;;4975928;28;20046;-71
2024/02/22 04:05:56;;;;;;;2.83;1.83;;;9.90;99.90;;;;;;4992698;28;20050;-70
2024/02/22 04:08:23;;;;;;;3.20;2.42;;;10.00;99.90;;;;;;4992115;28;20050;-70
2024/02/22 04:10:50;;;;;;;1.85;1.38;;;10.00;99.90;;;;;;4991719;28;20149;-70
2024/02/22 04:13:18;;;;;;;1.50;1.10;;;10.00;99.90;;;;;;4993295;28;20155;-70
2024/02/22 04:15:45;;;;;;;1.70;1.08;;;10.00;99.90;;;;;;4991822;28;20046;-70
2024/02/22 04:18:12;;;;;;;2.88;1.52;;;10.00;99.90;;;;;;4992035;28;20074;-70
2024/02/22 04:20:39;;;;;;;2.55;1.13;;;10.00;99.90;;;;;;4991974;28;20046;-70
2024/02/22 04:23:06;;;;;;;3.33;1.30;;;10.00;99.90;;;;;;4991756;28;20122;-70
2024/02/22 04:25:33;;;;;;;3.10;2.00;;;10.00;99.90;;;;;;4993148;28;20038;-71
2024/02/22 04:28:00;;;;;;;1.67;1.23;;;10.00;99.90;;;;;;4989216;28;20070;-71
2024/02/22 04:30:27;;;;;;;1.75;1.25;;;10.00;99.90;;;;;;4991991;28;20138;-71
2024/02/22 04:32:54;;;;;;;2.67;1.75;;;10.00;99.90;;;;;;5007943;28;20046;-70
2024/02/22 04:35:21;;;;;;;2.33;1.23;;;10.00;99.90;;;;;;4991973;28;20053;-71
2024/02/22 04:37:48;;;;;;;2.25;1.38;;;10.00;99.90;;;;;;4991602;28;20088;-70
2024/02/22 04:40:16;;;;;;;4.00;1.50;;;10.00;99.90;;;;;;4991788;28;20093;-70
2024/02/22 04:42:43;;;;;;;4.30;2.05;;;10.00;99.90;;;;;;4991787;28;20106;-70
2024/02/22 04:45:13;;;;;;;2.42;2.10;;;10.00;99.90;;;;;;4991625;28;20384;-71
2024/02/22 04:47:40;;;;;;;1.67;0.77;;;10.00;99.90;;;;;;4975805;28;20042;-70
2024/02/22 04:50:08;;;;;;;2.97;1.42;;;10.00;99.90;;;;;;4991519;28;20089;-71
2024/02/22 04:52:35;;;;;;;1.90;1.30;;;10.00;99.90;;;;;;4991832;28;20514;-71
2024/02/22 04:55:03;;;;;;;2.65;1.52;;;10.10;99.90;;;;;;4991742;28;20046;-71
2024/02/22 04:57:30;;;;;;;4.03;2.13;;;10.10;99.90;;;;;;4992897;28;20035;-71
2024/02/22 04:59:57;;;;;;;1.33;0.90;;;10.10;99.90;;;;;;5007821;28;20038;-71
2024/02/22 05:02:24;;;;;;;2.55;1.52;;;10.10;99.90;;;;;;4992861;28;20082;-71
2024/02/22 05:04:51;;;;;;;4.95;2.20;;;10.10;99.90;;;;;;4992649;28;20570;-71
2024/02/22 05:07:18;;;;;;;2.38;1.38;;;10.10;99.90;;;;;;4992691;28;20088;-70
2024/02/22 05:09:45;;;;;;;2.15;1.17;;;10.10;99.90;;;;;;4991603;28;20512;-71
2024/02/22 05:12:12;;;;;;;2.45;2.25;;;10.10;99.90;;;;;;4992443;28;20464;-70
2024/02/22 05:14:44;;;;;;;2.40;1.48;;;10.10;99.90;;;;;;4991394;28;20491;-71
2024/02/22 05:17:12;;;;;;;3.13;2.33;;;10.10;99.90;;;;;;4992467;28;20439;-70
2024/02/22 05:19:40;;;;;;;2.30;1.17;;;10.20;99.90;;;;;;4992690;28;20547;-70
2024/02/22 05:22:07;;;;;;;2.55;1.35;;;10.20;99.90;;;;;;4992363;28;20101;-70
2024/02/22 05:24:34;;;;;;;2.10;1.30;;;10.20;99.90;;;;;;4991422;28;20050;-70
2024/02/22 05:27:01;;;;;;;2.20;1.50;;;10.20;99.90;;;;;;5007387;28;20504;-70
2024/02/22 05:29:28;;;;;;;1.80;1.20;;;10.20;99.90;;;;;;4990335;28;20174;-70
2024/02/22 05:31:56;;;;;;;3.33;1.80;;;10.20;99.90;;;;;;4991064;28;20101;-71
2024/02/22 05:34:25;;;;;;;4.43;1.77;;;10.20;99.90;;;;;;4991302;28;20042;-70
2024/02/22 05:36:52;;;;;;;5.68;2.30;;;10.20;99.90;;;;;;4995689;28;20046;-70
2024/02/22 05:39:19;;;;;;;2.42;1.15;;;10.20;99.90;;;;;;4994946;28;20534;-70
2024/02/22 05:41:46;;;;;;;2.38;1.98;;;10.20;99.90;;;;;;4994809;28;20464;-70
2024/02/22 05:44:13;;;;;;;3.88;1.85;;;10.20;99.90;;;;;;4995781;28;20483;-70
2024/02/22 05:46:40;;;;;;;3.10;1.58;;;10.20;99.90;;;;;;4994562;28;20077;-70
2024/02/22 05:49:07;;;;;;;4.25;3.00;;;10.20;99.90;;;;;;4994281;28;20422;-70
2024/02/22 05:51:35;;;;;;;1.92;1.35;;;10.20;99.90;;;;;;4994559;28;20030;-70
2024/02/22 05:54:02;;;;;;;4.63;2.05;;;10.20;99.90;;;;;;4994369;28;20045;-71
2024/02/22 05:56:29;;;;;;;5.50;2.78;;;10.20;99.90;;;;;;4994373;28;20045;-71
2024/02/22 05:58:56;;;;;;;3.40;1.98;;;10.20;99.90;;;;;;4994196;28;20050;-70
2024/02/22 06:01:23;;;;;;;3.00;2.10;;;10.20;99.90;;;;;;5004074;28;20046;-70
2024/02/22 06:03:50;;;;;;;6.53;3.22;;;10.20;99.90;;;;;;4995383;28;20080;-70
2024/02/22 06:06:17;;;;;;;4.30;1.98;;;10.30;99.90;;;;;;4993620;28;20058;-70
2024/02/22 06:08:44;;;;;;;5.50;2.95;;;10.30;99.90;;;;;;4995574;28;20070;-70
2024/02/22 06:11:15;;;;;;;3.22;1.88;;;10.30;99.90;;;;;;4993969;28;20042;-70
2024/02/22 06:13:43;;;;;;;4.85;2.20;;;10.30;99.90;;;;;;4995542;28;20045;-70
2024/02/22 06:16:10;;;;;;;4.70;3.80;;;10.30;99.90;;;;;;4977870;28;20411;-70
2024/02/22 06:18:37;;;;;;;4.63;2.58;;;10.30;99.90;;;;;;4994082;28;20145;-70
2024/02/22 06:21:06;;;;;;;7.40;3.45;;;10.30;99.90;;;;;;4993972;28;20042;-70
2024/02/22 06:23:34;;;;;;;4.93;2.95;;;10.30;99.90;;;;;;4978001;28;20129;-70
2024/02/22 06:26:03;;;;;;;5.43;2.72;;;10.40;99.90;;;;;;4993501;28;20145;-70
2024/02/22 06:28:31;;;;;;;2.92;2.03;;;10.30;99.90;;;;;;4993680;28;20069;-70
2024/02/22 06:30:58;;;;;;;4.35;2.08;;;10.30;99.90;;;;;;4993748;28;20117;-70
2024/02/22 06:33:25;;;;;;;4.60;2.00;;;10.30;99.90;;;;;;4993848;28;20097;-70
2024/02/22 06:35:52;;;;;;;4.65;3.28;;;10.30;99.90;;;;;;4994993;28;20043;-70
2024/02/22 06:38:20;;;;;;;5.05;3.50;;;10.30;99.90;;;;;;4993419;28;20066;-71
2024/02/22 06:40:50;;;;;;;5.72;4.05;;;10.30;99.90;;;;;;4993591;28;20439;-70
2024/02/22 06:43:18;;;;;;;8.98;5.05;;;10.30;99.90;;;;;;4993314;28;20054;-70
2024/02/22 06:45:45;;;;;;;8.82;4.53;;;10.30;99.90;;;;;;4993551;28;20050;-70
2024/02/22 06:48:12;;;;;;;5.47;4.20;;;10.30;99.90;;;;;;4977382;28;20104;-70
2024/02/22 06:50:39;;;;;;;11.52;6.85;;;10.30;99.90;;;;;;4993495;28;20038;-70
2024/02/22 06:53:06;;;;;;;6.47;3.60;;;10.30;99.90;;;;;;4977067;28;20049;-70
2024/02/22 06:55:33;;;;;;;11.80;6.47;;;10.20;99.90;;;;;;4993409;28;20057;-70
2024/02/22 06:58:04;;;;;;;13.77;7.20;;;10.20;99.90;;;;;;4994612;28;20043;-70
2024/02/22 07:00:34;;;;;;;10.73;4.90;;;10.20;99.90;;;;;;4993384;28;20142;-70
2024/02/22 07:03:01;;;;;;;8.88;5.95;;;10.30;99.90;;;;;;4993251;28;20109;-70
2024/02/22 07:05:31;;;;;;;9.95;5.20;;;10.20;99.90;;;;;;4993196;28;20463;-70
2024/02/22 07:07:58;;;;;;;10.70;7.60;;;10.20;99.90;;;;;;4993078;28;20459;-70
2024/02/22 07:10:26;;;;;;;13.82;8.27;;;10.20;99.90;;;;;;4992913;28;20076;-70
2024/02/22 07:12:53;;;;;;;15.07;7.30;;;10.20;99.90;;;;;;4976917;28;20101;-70
2024/02/22 07:15:20;;;;;;;20.90;8.45;;;10.20;99.90;;;;;;4993826;28;20049;-70
2024/02/22 07:17:47;;;;;;;15.63;6.90;;;10.20;99.90;;;;;;4994128;28;20039;-70
2024/02/22 07:20:14;;;;;;;12.52;6.15;;;10.10;99.90;;;;;;4992721;28;20043;-70
2024/02/22 07:22:44;;;;;;;16.30;4.00;;;10.10;99.90;;;;;;4994080;28;20127;-70
2024/02/22 07:25:12;;;;;;;12.32;4.63;;;10.10;99.90;;;;;;4994290;28;20042;-70
2024/02/22 07:27:39;;;;;;;12.00;4.43;;;10.10;99.90;;;;;;4960630;28;20057;-70
2024/02/22 07:30:08;;;;;;;9.20;4.28;;;10.10;99.90;;;;;;4990542;28;20065;-70
2024/02/22 07:32:36;;;;;;;12.05;4.95;;;10.20;99.90;;;;;;4993857;28;20407;-70
2024/02/22 07:35:03;;;;;;;9.88;4.75;;;10.20;99.90;;;;;;4992728;28;20049;-70
2024/02/22 07:37:30;;;;;;;16.00;5.47;;;10.20;99.90;;;;;;4992460;28;20384;-71
2024/02/22 07:39:57;;;;;;;9.68;4.95;;;10.10;99.90;;;;;;4993861;28;20400;-70
2024/02/22 07:42:24;;;;;;;9.95;4.65;;;10.10;99.90;;;;;;4992249;28;20050;-70
2024/02/22 07:44:51;;;;;;;5.97;3.53;;;10.10;99.90;;;;;;4992330;28;20495;-70
2024/02/22 07:47:18;;;;;;;11.07;6.05;;;10.20;99.90;;;;;;4992237;28;20451;-70
2024/02/22 07:49:46;;;;;;;9.55;3.60;;;10.10;99.90;;;;;;4992389;28;20046;-70
2024/02/22 07:52:13;;;;;;;8.55;4.05;;;10.10;99.90;;;;;;4991893;28;20056;-70
2024/02/22 07:54:40;;;;;;;8.77;3.92;;;10.10;99.90;;;;;;4993473;28;20053;-70
2024/02/22 07:57:08;;;;;;;8.57;4.05;;;10.10;99.90;;;;;;4992175;28;20051;-71
2024/02/22 07:59:35;;;;;;;11.05;3.80;;;10.20;99.90;;;;;;4992842;28;20097;-70
2024/02/22 08:02:02;;;;;;;10.82;3.95;;;10.20;99.90;;;;;;4993380;28;20046;-70
2024/02/22 08:04:29;;;;;;;8.43;4.32;;;10.10;99.90;;;;;;4992005;28;20053;-70
2024/02/22 08:06:56;;;;;;;7.22;3.20;;;10.10;99.90;;;;;;4993368;28;20044;-71
2024/02/22 08:09:24;;;;;;;9.68;4.43;;;10.10;99.90;;;;;;4993168;28;20042;-70
2024/02/22 08:11:51;;;;;;;6.47;3.28;;;10.10;99.90;;;;;;4992041;28;20490;-71
2024/02/22 08:14:18;;;;;;;5.38;2.70;;;10.00;99.90;;;;;;4993099;28;20034;-71
2024/02/22 08:16:46;;;;;;;10.50;3.42;;;10.00;99.90;;;;;;4976065;28;20088;-70
2024/02/22 08:19:13;;;;;;;7.35;3.15;;;10.00;99.90;;;;;;4976173;28;20125;-70
2024/02/22 08:21:41;;;;;;;10.73;3.42;;;10.00;99.90;;;;;;4973285;28;20141;-70
2024/02/22 08:24:10;;;;;;;9.20;3.92;;;9.90;99.90;;;;;;4972537;28;20113;-70
2024/02/22 08:26:37;;;;;;;6.97;2.95;;;9.90;99.90;;;;;;5004537;28;20110;-70
2024/02/22 08:29:04;;;;;;;11.23;5.35;;;9.90;99.90;;;;;;4972142;28;20109;-70
2024/02/22 08:31:31;;;;;;;10.07;5.32;;;9.90;99.90;;;;;;4973286;28;20058;-70
2024/02/22 08:33:58;;;;;;;12.23;3.55;;;9.90;99.90;;;;;;4972253;28;20065;-71
2024/02/22 08:36:25;;;;;;;11.07;4.40;;;10.00;99.90;;;;;;4972116;28;20141;-70
2024/02/22 08:38:52;;;;;;;5.57;3.95;;;10.00;99.90;;;;;;4956329;28;20047;-70
2024/02/22 08:41:19;;;;;;;11.02;4.53;;;10.20;99.90;;;;;;5004370;28;20039;-70
2024/02/22 08:43:46;;;;;;;16.00;4.20;;;10.30;99.90;;;;;;4972175;28;20057;-70
2024/02/22 08:46:13;;;;;;;13.73;4.28;;;10.40;99.90;;;;;;4972145;28;20039;-70
2024/02/22 08:48:40;;;;;;;12.60;4.78;;;10.40;99.90;;;;;;5004367;28;20035;-70
2024/02/22 08:51:11;;;;;;;7.75;5.40;;;10.40;99.90;;;;;;4973548;28;20440;-70
2024/02/22 08:53:38;;;;;;;9.13;5.15;;;10.40;99.90;;;;;;4973334;28;20042;-70
2024/02/22 08:56:09;;;;;;;17.45;4.65;;;10.40;99.90;;;;;;4972181;28;20133;-70
2024/02/22 08:58:42;;;;;;;17.00;7.22;;;10.50;99.90;;;;;;4973315;28;20090;-70
2024/02/22 09:01:09;;;;;;;18.25;8.60;;;10.50;99.90;;;;;;4973185;28;20050;-70
2024/02/22 09:03:36;;;;;;;13.18;5.22;;;10.40;99.90;;;;;;4971980;28;20599;-70
2024/02/22 09:06:03;;;;;;;11.38;5.32;;;10.40;99.90;;;;;;4973399;28;20121;-70
2024/02/22 09:08:31;;;;;;;14.40;6.80;;;10.40;99.90;;;;;;4973114;28;20049;-70
2024/02/22 09:10:58;;;;;;;15.40;7.38;;;10.40;99.90;;;;;;4975227;28;20496;-70
2024/02/22 09:13:26;;;;;;;5.38;4.13;;;10.40;99.90;;;;;;4975591;28;20039;-70
2024/02/22 09:15:53;;;;;;;13.95;6.70;;;10.40;99.90;;;;;;4977028;28;20101;-70
2024/02/22 09:18:20;;;;;;;13.45;6.13;;;10.50;99.90;;;;;;4977001;28;20121;-70
2024/02/22 09:20:49;;;;;;;11.18;5.38;;;10.60;99.90;;;;;;4976878;28;20039;-70
2024/02/22 09:23:17;;;;;;;20.25;8.05;;;10.70;99.90;;;;;;4975779;28;20046;-70
2024/02/22 09:25:44;;;;;;;10.73;5.35;;;10.70;99.90;;;;;;4975587;28;20047;-70
2024/02/22 09:28:11;;;;;;;11.65;4.88;;;10.80;99.90;;;;;;5007895;28;20067;-70
2024/02/22 09:30:38;;;;;;;14.27;6.88;;;10.90;99.90;;;;;;4975173;28;20083;-70
2024/02/22 09:33:07;;;;;;;13.43;5.50;;;10.80;99.90;;;;;;4975424;28;20055;-69
2024/02/22 09:35:36;;;;;;;12.23;5.75;;;10.80;99.90;;;;;;4975244;28;20039;-70
2024/02/22 09:38:04;;;;;;;14.93;6.43;;;10.80;99.90;;;;;;4975483;28;20381;-70
2024/02/22 09:40:33;;;;;;;21.10;8.30;;;10.80;99.90;;;;;;4976322;28;20042;-70
2024/02/22 09:43:01;;;;;;;14.70;10.05;;;10.90;99.90;;;;;;4975317;28;20051;-70
2024/02/22 09:45:29;;;;;;;13.77;6.95;;;10.90;99.90;;;;;;5007566;28;20141;-70
2024/02/22 09:47:56;;;;;;;18.02;9.00;;;11.00;99.90;;;;;;4991378;28;20114;-70
2024/02/22 09:50:24;;;;;;;14.18;6.15;;;11.40;99.90;;;;;;4975113;28;20060;-70
2024/02/22 09:52:51;;;;;;;16.35;5.95;;;11.80;99.90;;;;;;4974806;28;20042;-70
2024/02/22 09:55:19;;;;;;;14.30;9.07;;;12.30;99.90;;;;;;4976329;28;20047;-70
2024/02/22 09:57:48;;;;;;;19.73;10.13;;;12.60;99.90;;;;;;4976088;28;20046;-70
2024/02/22 10:00:16;;;;;;;16.08;7.75;;;12.80;99.90;;;;;;5007408;28;20053;-70
2024/02/22 10:02:46;;;;;;;13.35;6.90;;;12.80;99.90;;;;;;4974919;28;20051;-70
2024/02/22 10:05:14;;;;;;;13.05;6.25;;;12.70;99.90;;;;;;4974903;28;20047;-70
2024/02/22 10:07:41;;;;;;;11.13;7.85;;;12.50;99.90;;;;;;4975934;28;20446;-70
2024/02/22 10:10:08;;;;;;;18.33;6.97;;;12.30;99.90;;;;;;4958839;28;20055;-70
2024/02/22 10:12:36;;;;;;;15.00;8.63;;;12.10;99.90;;;;;;4974535;28;20078;-70
2024/02/22 10:15:11;;;;;;;13.57;6.95;;;11.90;99.90;;;;;;4990680;28;20105;-70
2024/02/22 10:17:38;;;;;;;18.73;9.35;;;11.70;99.90;;;;;;4974501;28;20547;-70
2024/02/22 10:20:06;;;;;;;14.52;9.55;;;11.60;99.90;;;;;;5006823;28;20039;-70
2024/02/22 10:22:34;;;;;;;18.30;9.93;;;11.40;99.90;;;;;;4973060;28;20384;-70
2024/02/22 10:25:16;;;;;;;9.02;5.45;;;11.60;99.90;;;;;;5006992;28;20074;-70
2024/02/22 10:27:49;;;;;;;10.40;5.63;;;12.00;99.90;;;;;;5005923;28;20039;-70
2024/02/22 10:30:18;;;;;;;14.80;7.13;;;12.40;99.90;;;;;;4990357;28;20492;-70
2024/02/22 10:32:47;;;;;;;17.80;7.90;;;12.80;99.90;;;;;;4975371;28;20386;-70
2024/02/22 10:35:15;;;;;;;19.42;7.85;;;12.70;99.90;;;;;;4990545;28;20051;-70
2024/02/22 10:37:42;;;;;;;10.68;5.57;;;12.50;99.90;;;;;;5006254;28;20058;-69
2024/02/22 10:40:11;;;;;;;6.57;4.22;;;12.30;99.90;;;;;;4974186;28;20047;-70
2024/02/22 10:42:39;;;;;;;11.15;5.63;;;12.00;99.90;;;;;;5006435;28;20050;-70
2024/02/22 10:45:07;;;;;;;13.27;8.13;;;11.90;99.90;;;;;;4975460;28;20085;-70
2024/02/22 10:47:38;;;;;;;16.48;5.65;;;11.80;99.90;;;;;;4975374;28;20050;-70
2024/02/22 10:50:06;;;;;;;9.23;5.15;;;11.80;99.90;;;;;;4974162;28;20132;-70
2024/02/22 10:52:42;;;;;;;8.05;4.75;;;11.80;99.90;;;;;;4975256;28;20042;-70
2024/02/22 10:55:15;;;;;;;14.95;6.68;;;11.80;99.90;;;;;;4974020;28;20531;-70
2024/02/22 10:57:50;;;;;;;18.40;7.60;;;11.90;99.90;;;;;;4975029;28;20046;-70
2024/02/22 11:00:17;;;;;;;8.55;4.88;;;12.00;99.90;;;;;;4975134;28;20396;-70
2024/02/22 11:02:45;;;;;;;13.38;7.90;;;12.10;99.90;;;;;;4973593;28;20151;-70
2024/02/22 11:05:13;;;;;;;12.35;8.43;;;12.20;99.90;;;;;;4975032;28;20057;-70
2024/02/22 11:07:50;;;;;;;9.48;5.97;;;12.20;99.90;;;;;;4989556;28;20567;-70
2024/02/22 11:10:19;;;;;;;14.68;8.13;;;12.20;99.90;;;;;;4973625;28;20046;-70
2024/02/22 11:12:47;;;;;;;10.02;6.43;;;12.10;99.90;;;;;;5005013;28;20039;-70
2024/02/22 11:15:15;;;;;;;13.45;8.65;;;12.10;99.90;;;;;;5005870;28;20476;-70
2024/02/22 11:17:53;;;;;;;15.63;6.57;;;12.10;99.90;;;;;;5005595;28;20109;-70
2024/02/22 11:20:33;;;;;;;10.70;8.13;;;12.20;99.90;;;;;;4973477;28;20073;-70
2024/02/22 11:23:17;;;;;;;10.57;7.03;;;12.40;99.90;;;;;;4989513;28;20054;-70
2024/02/22 11:25:46;;;;;;;12.68;8.27;;;12.40;99.90;;;;;;4974522;28;20051;-70
2024/02/22 11:28:13;;;;;;;12.48;6.28;;;12.40;99.90;;;;;;5005723;28;20047;-70
2024/02/22 11:30:40;;;;;;;15.35;10.43;;;12.50;99.90;;;;;;4973207;28;20109;-70
2024/02/22 11:33:10;;;;;;;7.85;6.60;;;12.60;99.90;;;;;;4973837;28;20102;-70
2024/02/22 11:35:37;;;;;;;11.93;7.72;;;12.70;99.90;;;;;;4973266;28;20046;-70
2024/02/22 11:38:04;;;;;;;13.05;8.90;;;12.70;99.90;;;;;;4974149;28;20058;-70
2024/02/22 11:40:34;;;;;;;11.88;6.70;;;12.60;99.90;;;;;;4974381;28;20039;-69
2024/02/22 11:43:02;;;;;;;8.40;6.80;;;12.70;99.90;;;;;;4974154;28;20126;-70
2024/02/22 11:45:31;;;;;;;7.55;4.35;;;12.70;99.90;;;;;;4989133;28;20055;-70
2024/02/22 11:47:58;;;;;;;10.23;8.23;;;12.70;99.90;;;;;;4973957;28;20042;-70
2024/02/22 11:50:27;;;;;;;5.65;4.45;;;12.60;99.90;;;;;;4972954;28;20086;-70
2024/02/22 11:52:55;;;;;;;8.25;5.75;;;12.70;99.90;;;;;;4973935;28;20484;-70
2024/02/22 11:55:23;;;;;;;7.47;6.22;;;12.90;99.90;;;;;;4972904;28;20082;-70
2024/02/22 11:57:50;;;;;;;6.75;5.75;;;13.20;99.90;;;;;;4973820;28;20089;-70
2024/02/22 12:00:17;;;;;;;8.52;5.93;;;13.50;99.90;;;;;;4974117;28;20046;-70
2024/02/22 12:02:44;;;;;;;7.03;4.35;;;13.50;99.90;;;;;;4972770;28;20059;-70
2024/02/22 12:05:13;;;;;;;5.78;4.65;;;13.50;99.90;;;;;;4988935;28;20050;-70
2024/02/22 12:07:40;;;;;;;5.32;4.82;;;13.70;99.90;;;;;;4972734;28;20066;-70
2024/02/22 12:10:09;;;;;;;3.38;3.10;;;13.80;99.90;;;;;;4973822;28;20045;-70
2024/02/22 12:12:39;;;;;;;5.95;3.85;;;13.70;99.90;;;;;;4972807;28;20078;-70
2024/02/22 12:15:07;;;;;;;6.78;4.82;;;13.50;99.90;;;;;;4973693;28;20070;-70
2024/02/22 12:17:34;;;;;;;5.63;5.05;;;13.60;99.90;;;;;;4988672;28;20046;-70
2024/02/22 12:20:03;;;;;;;3.53;2.85;;;13.60;99.90;;;;;;4988278;28;20042;-70
2024/02/22 12:22:31;;;;;;;7.70;3.97;;;13.40;99.90;;;;;;4972514;28;20145;-70
2024/02/22 12:24:58;;;;;;;3.13;2.83;;;13.30;99.90;;;;;;4973511;28;20492;-69
2024/02/22 12:27:26;;;;;;;6.18;4.07;;;13.30;99.90;;;;;;5004648;28;20193;-70
2024/02/22 12:29:54;;;;;;;4.50;4.10;;;13.20;99.90;;;;;;4973276;28;20117;-70
2024/02/22 12:32:21;;;;;;;3.58;3.28;;;13.10;99.90;;;;;;4988251;28;20055;-69
2024/02/22 12:34:52;;;;;;;2.85;2.53;;;12.90;99.90;;;;;;4956431;28;20504;-70
2024/02/22 12:37:19;;;;;;;3.78;3.33;;;12.90;99.90;;;;;;4972364;28;20050;-69
2024/02/22 12:39:48;;;;;;;3.05;2.75;;;12.70;99.90;;;;;;4973639;28;20053;-70
2024/02/22 12:42:15;;;;;;;2.72;2.53;;;12.60;99.90;;;;;;4973638;28;20047;-69
2024/02/22 12:44:42;;;;;;;4.65;3.95;;;12.40;99.90;;;;;;4975227;28;20093;-70
2024/02/22 12:47:12;;;;;;;6.57;5.97;;;12.50;99.90;;;;;;4977393;28;20043;-69
2024/02/22 12:49:39;;;;;;;5.13;4.60;;;12.30;99.90;;;;;;4977577;28;20051;-70
2024/02/22 12:52:06;;;;;;;4.80;4.38;;;12.30;99.90;;;;;;4976053;28;20141;-69